Terminal Aerodrome Forecast
Issued by NWS

Home | Current Version | Previous Version | Text Only | Print | Product List | Glossary On
Versions: 1 2 3 4 5 6 7 8 9 10 11 12 13 14 15 16 17 18 19 20 21 22 23 24 25 26 27 28 29
000
FTPQ31 PGUM 232000 RRA
TAFPQ
TAF
PGRO 232037Z 2321/2418 09010KT P6SM VCSH FEW020 SCT040 SCT120
     FM232300 07010G18KT P6SM VCSH FEW018 SCT050=

USA.gov is the U.S. government's official web portal to all federal, state and local government web resources and services.